Time;durP1;ratioP1;P1;durP2;ratioP2;P2;SDS_P1;SDS_P2;PMS_P1;PMS_P2;Temp;Humidity;BMP_temperature;BMP_pressure;BME280_temperature;BME280_humidity;BME280_pressure;Samples;Min_cycle;Max_cycle;Signal;HPM_P1;HPM_P2
2022/11/14 00:02:16;;;;;;;44.83;27.13;;;7.30;99.90;;;;;;5047317;28;20057;-68
2022/11/14 00:04:46;;;;;;;44.70;25.73;;;7.30;99.90;;;;;;5048338;28;20033;-68
2022/11/14 00:07:11;;;;;;;48.10;27.03;;;7.40;99.90;;;;;;5046658;28;20045;-68
2022/11/14 00:09:39;;;;;;;46.72;26.10;;;7.50;99.90;;;;;;5051218;28;20037;-68
2022/11/14 00:12:05;;;;;;;43.92;25.15;;;7.40;99.90;;;;;;5049103;28;20093;-68
2022/11/14 00:14:31;;;;;;;41.13;25.90;;;7.40;99.90;;;;;;5049107;28;20041;-68
2022/11/14 00:16:56;;;;;;;44.22;25.50;;;7.40;99.90;;;;;;5047309;28;20055;-68
2022/11/14 00:19:22;;;;;;;42.55;25.42;;;7.30;99.90;;;;;;5049201;28;20472;-68
2022/11/14 00:21:48;;;;;;;44.88;26.92;;;7.40;99.90;;;;;;5048348;28;20091;-68
2022/11/14 00:24:13;;;;;;;47.38;28.23;;;7.40;99.90;;;;;;5050061;28;20041;-69
2022/11/14 00:26:39;;;;;;;45.65;28.08;;;7.40;99.90;;;;;;5048835;28;20048;-68
2022/11/14 00:29:05;;;;;;;45.95;28.75;;;7.40;99.90;;;;;;5048691;28;20558;-68
2022/11/14 00:31:30;;;;;;;48.30;29.48;;;7.40;99.90;;;;;;5048068;28;20053;-68
2022/11/14 00:33:56;;;;;;;50.65;31.15;;;7.40;99.90;;;;;;5050484;28;20081;-69
2022/11/14 00:36:22;;;;;;;47.72;30.23;;;7.40;99.90;;;;;;5048308;28;20103;-68
2022/11/14 00:38:52;;;;;;;50.17;30.00;;;7.40;99.90;;;;;;5049844;28;20049;-68
2022/11/14 00:41:18;;;;;;;53.20;31.20;;;7.40;99.90;;;;;;5047649;28;20052;-68
2022/11/14 00:43:43;;;;;;;52.45;32.50;;;7.30;99.90;;;;;;5049776;28;20045;-68
2022/11/14 00:46:09;;;;;;;53.58;32.28;;;7.40;99.90;;;;;;5048237;28;20044;-68
2022/11/14 00:48:34;;;;;;;53.85;31.52;;;7.30;99.90;;;;;;5048907;28;20034;-68
2022/11/14 00:51:00;;;;;;;61.03;34.63;;;7.40;99.90;;;;;;5048433;28;20037;-68
2022/11/14 00:53:26;;;;;;;60.00;33.40;;;7.40;99.90;;;;;;5049260;28;20049;-68
2022/11/14 00:55:51;;;;;;;56.85;33.00;;;7.40;99.90;;;;;;5046068;28;20041;-68
2022/11/14 00:58:17;;;;;;;53.10;31.50;;;7.30;99.90;;;;;;5048547;28;20041;-68
2022/11/14 01:00:43;;;;;;;58.70;33.40;;;7.20;99.90;;;;;;5047191;28;20104;-68
2022/11/14 01:03:08;;;;;;;60.38;35.22;;;7.20;99.90;;;;;;5045946;28;20330;-68
2022/11/14 01:05:43;;;;;;;61.97;35.70;;;7.20;99.90;;;;;;5047922;28;20129;-68
2022/11/14 01:08:09;;;;;;;60.85;35.28;;;7.20;99.90;;;;;;5052503;28;20049;-68
2022/11/14 01:10:41;;;;;;;65.00;37.35;;;7.30;99.90;;;;;;5047767;28;20041;-68
2022/11/14 01:13:08;;;;;;;62.80;37.03;;;7.20;99.90;;;;;;5044970;28;20053;-68
2022/11/14 01:15:42;;;;;;;67.85;37.63;;;7.20;99.90;;;;;;5047146;28;20073;-68
2022/11/14 01:18:13;;;;;;;62.78;36.72;;;7.20;99.90;;;;;;5048833;28;20045;-68
2022/11/14 01:20:41;;;;;;;68.90;39.38;;;7.20;99.90;;;;;;5038793;28;20083;-68
2022/11/14 01:23:08;;;;;;;63.95;37.72;;;7.10;99.90;;;;;;5047563;28;20047;-68
2022/11/14 01:25:35;;;;;;;69.63;38.92;;;7.10;99.90;;;;;;5046045;28;20464;-69
2022/11/14 01:28:05;;;;;;;68.63;39.85;;;7.10;99.90;;;;;;5047867;28;20056;-68
2022/11/14 01:30:31;;;;;;;64.22;35.35;;;7.00;99.90;;;;;;5045998;28;20599;-68
2022/11/14 01:32:57;;;;;;;62.50;35.95;;;7.00;99.90;;;;;;5047139;28;20104;-68
2022/11/14 01:35:22;;;;;;;66.63;36.75;;;6.90;99.90;;;;;;5037279;28;20060;-69
2022/11/14 01:37:48;;;;;;;64.22;37.38;;;6.90;99.90;;;;;;5049606;28;20490;-68
2022/11/14 01:40:14;;;;;;;61.17;36.25;;;6.90;99.90;;;;;;5046367;28;20060;-68
2022/11/14 01:42:40;;;;;;;73.28;39.78;;;6.80;99.90;;;;;;5047555;28;20041;-68
2022/11/14 01:45:46;;;;;;;63.60;35.47;;;6.80;99.90;;;;;;5047695;28;20049;-69
2022/11/14 01:48:59;;;;;;;67.47;39.08;;;6.80;99.90;;;;;;5079298;28;20555;-69
2022/11/14 01:51:52;;;;;;;63.42;36.03;;;6.70;99.90;;;;;;5009387;28;20180;-68
2022/11/14 01:54:31;;;;;;;65.93;37.85;;;6.70;99.90;;;;;;5028725;28;20172;-68
2022/11/14 01:57:00;;;;;;;68.00;38.60;;;6.70;99.90;;;;;;5010207;28;20052;-69
2022/11/14 01:59:42;;;;;;;67.70;38.60;;;6.70;99.90;;;;;;5028925;28;20080;-68
2022/11/14 02:02:16;;;;;;;66.43;37.10;;;6.70;99.90;;;;;;5008978;28;20121;-68
2022/11/14 02:04:48;;;;;;;66.43;37.78;;;6.70;99.90;;;;;;5011004;28;20042;-68
2022/11/14 02:07:14;;;;;;;66.80;38.13;;;6.70;99.90;;;;;;5020479;28;20054;-68
2022/11/14 02:09:44;;;;;;;68.00;38.70;;;6.70;99.90;;;;;;5028167;28;20534;-68
2022/11/14 02:12:13;;;;;;;68.25;38.47;;;6.60;99.90;;;;;;5005072;28;20394;-68
2022/11/14 02:14:40;;;;;;;71.28;38.45;;;6.60;99.90;;;;;;5015133;28;20292;-68
2022/11/14 02:17:05;;;;;;;65.85;37.22;;;6.60;99.90;;;;;;5032624;28;20424;-68
2022/11/14 02:19:50;;;;;;;72.75;39.00;;;6.60;99.90;;;;;;5016070;28;20085;-68
2022/11/14 02:22:16;;;;;;;70.00;39.10;;;6.70;99.90;;;;;;5022140;28;20065;-68
2022/11/14 02:24:43;;;;;;;71.95;38.03;;;6.70;99.90;;;;;;5020513;28;20068;-68
2022/11/14 02:27:10;;;;;;;72.57;39.10;;;6.80;99.90;;;;;;5032910;28;20057;-68
2022/11/14 02:29:36;;;;;;;69.32;38.63;;;6.80;99.90;;;;;;5052801;28;20049;-68
2022/11/14 02:32:02;;;;;;;69.13;39.10;;;6.80;99.90;;;;;;5083536;28;20043;-69
2022/11/14 02:34:28;;;;;;;77.03;40.80;;;6.90;99.90;;;;;;5059814;28;20103;-68
2022/11/14 02:36:55;;;;;;;77.25;40.20;;;6.90;99.90;;;;;;5054446;28;20494;-69
2022/11/14 02:39:20;;;;;;;69.53;37.85;;;6.90;99.90;;;;;;5054113;28;20068;-69
2022/11/14 02:41:46;;;;;;;70.13;38.80;;;7.00;99.90;;;;;;5062987;28;20061;-68
2022/11/14 02:44:12;;;;;;;72.03;38.95;;;6.90;99.90;;;;;;5060975;28;20045;-69
2022/11/14 02:46:37;;;;;;;70.38;38.10;;;7.00;99.90;;;;;;5038385;28;20045;-68
2022/11/14 02:49:03;;;;;;;73.50;38.78;;;7.00;99.90;;;;;;5062891;28;20390;-68
2022/11/14 02:51:29;;;;;;;73.30;38.10;;;7.00;99.90;;;;;;5050756;28;20041;-68
2022/11/14 02:53:55;;;;;;;75.32;39.00;;;7.00;99.90;;;;;;5062954;28;20045;-69
2022/11/14 02:56:20;;;;;;;74.78;39.85;;;7.10;99.90;;;;;;5063910;28;20093;-68
2022/11/14 02:58:46;;;;;;;72.72;38.90;;;7.10;99.90;;;;;;5062748;28;20057;-68
2022/11/14 03:01:12;;;;;;;68.05;38.65;;;7.10;99.90;;;;;;5062095;28;20079;-68
2022/11/14 03:03:37;;;;;;;69.53;40.08;;;7.10;99.90;;;;;;5064369;28;20056;-68
2022/11/14 03:06:03;;;;;;;68.97;38.20;;;7.10;99.90;;;;;;5044455;28;20137;-69
2022/11/14 03:08:29;;;;;;;68.63;37.00;;;7.10;99.90;;;;;;5042065;28;20049;-68
2022/11/14 03:10:55;;;;;;;67.28;39.55;;;7.10;99.90;;;;;;5048351;28;20109;-68
2022/11/14 03:13:21;;;;;;;72.28;39.40;;;7.10;99.90;;;;;;5057760;28;20041;-68
2022/11/14 03:15:47;;;;;;;62.50;37.13;;;7.10;99.90;;;;;;5062967;28;20057;-68
2022/11/14 03:18:12;;;;;;;70.82;38.53;;;7.20;99.90;;;;;;5049542;28;20045;-68
2022/11/14 03:20:38;;;;;;;65.45;37.35;;;7.20;99.90;;;;;;5042826;28;20441;-69
2022/11/14 03:23:04;;;;;;;66.72;38.28;;;7.10;99.90;;;;;;5057156;28;20052;-68
2022/11/14 03:25:30;;;;;;;66.30;36.65;;;7.10;99.90;;;;;;5052685;28;20051;-69
2022/11/14 03:27:55;;;;;;;68.75;38.67;;;7.20;99.90;;;;;;5055252;28;20045;-69
2022/11/14 03:30:21;;;;;;;68.40;38.25;;;7.20;99.90;;;;;;5045547;28;20482;-68
2022/11/14 03:32:47;;;;;;;64.50;37.63;;;7.20;99.90;;;;;;5046911;28;20590;-68
2022/11/14 03:35:12;;;;;;;65.60;38.22;;;7.20;99.90;;;;;;5059890;28;20049;-69
2022/11/14 03:37:38;;;;;;;68.90;37.35;;;7.20;99.90;;;;;;5051515;28;20080;-68
2022/11/14 03:40:04;;;;;;;69.30;40.15;;;7.20;99.90;;;;;;5055505;28;20382;-68
2022/11/14 03:42:34;;;;;;;67.70;37.40;;;7.20;99.90;;;;;;5054986;28;20052;-68
2022/11/14 03:45:00;;;;;;;63.00;36.63;;;7.20;99.90;;;;;;5057697;28;20075;-68
2022/11/14 03:47:26;;;;;;;65.05;38.58;;;7.20;99.90;;;;;;5055636;28;20038;-68
2022/11/14 03:49:51;;;;;;;65.13;36.20;;;7.20;99.90;;;;;;5058799;28;20048;-69
2022/11/14 03:52:17;;;;;;;63.50;36.92;;;7.30;99.90;;;;;;5057124;28;20095;-69
2022/11/14 03:54:43;;;;;;;63.47;37.00;;;7.20;99.90;;;;;;5049327;28;20049;-68
2022/11/14 03:57:08;;;;;;;67.30;38.72;;;7.20;99.90;;;;;;5056899;28;20049;-68
2022/11/14 03:59:34;;;;;;;64.05;37.28;;;7.20;99.90;;;;;;5056705;28;20080;-68
2022/11/14 04:02:00;;;;;;;61.78;37.08;;;7.20;99.90;;;;;;5056621;28;20044;-69
2022/11/14 04:04:25;;;;;;;68.00;38.88;;;7.20;99.90;;;;;;5056308;28;20037;-69
2022/11/14 04:06:51;;;;;;;65.80;38.70;;;7.20;99.90;;;;;;5048099;28;20386;-68
2022/11/14 04:09:17;;;;;;;67.35;39.25;;;7.20;99.90;;;;;;5050979;28;20036;-68
2022/11/14 04:11:42;;;;;;;62.83;37.42;;;7.20;99.90;;;;;;5056852;28;20045;-68
2022/11/14 04:14:08;;;;;;;60.92;36.35;;;7.20;99.90;;;;;;5056749;28;20060;-69
2022/11/14 04:16:34;;;;;;;61.75;36.80;;;7.20;99.90;;;;;;5060928;28;20398;-68
2022/11/14 04:19:00;;;;;;;66.78;39.30;;;7.20;99.90;;;;;;5058119;28;20097;-68
2022/11/14 04:21:26;;;;;;;62.45;37.80;;;7.20;99.90;;;;;;5061772;28;20049;-68
2022/11/14 04:23:51;;;;;;;63.67;36.45;;;7.20;99.90;;;;;;5040988;28;20108;-68
2022/11/14 04:26:17;;;;;;;59.90;36.42;;;7.20;99.90;;;;;;5062148;28;20037;-68
2022/11/14 04:28:43;;;;;;;62.28;37.47;;;7.20;99.90;;;;;;5057446;28;20131;-68
2022/11/14 04:31:08;;;;;;;64.82;37.10;;;7.20;99.90;;;;;;5054196;28;20080;-68
2022/11/14 04:33:34;;;;;;;62.42;36.88;;;7.20;99.90;;;;;;5049591;28;20046;-68
2022/11/14 04:36:00;;;;;;;64.60;37.78;;;7.20;99.90;;;;;;5051706;28;20399;-69
2022/11/14 04:38:26;;;;;;;65.35;36.72;;;7.30;99.90;;;;;;5058418;28;20056;-69
2022/11/14 04:40:52;;;;;;;64.93;37.83;;;7.20;99.90;;;;;;5042960;28;20045;-68
2022/11/14 04:43:19;;;;;;;67.70;38.35;;;7.20;99.90;;;;;;5059982;28;20061;-68
2022/11/14 04:45:45;;;;;;;62.10;38.35;;;7.20;99.90;;;;;;5063705;28;20052;-68
2022/11/14 04:48:11;;;;;;;61.17;36.65;;;7.20;99.90;;;;;;5048975;28;20406;-68
2022/11/14 04:50:37;;;;;;;64.55;38.30;;;7.20;99.90;;;;;;5063551;28;20455;-68
2022/11/14 04:53:03;;;;;;;60.42;36.58;;;7.20;99.90;;;;;;5062378;28;20050;-69
2022/11/14 04:55:29;;;;;;;67.10;37.55;;;7.20;99.90;;;;;;5046061;28;20140;-69
2022/11/14 04:57:56;;;;;;;64.45;37.60;;;7.20;99.90;;;;;;5062997;28;20052;-68
2022/11/14 05:00:22;;;;;;;66.55;37.17;;;7.20;99.90;;;;;;5060647;28;20102;-69
2022/11/14 05:02:48;;;;;;;69.07;39.70;;;7.20;99.90;;;;;;5054006;28;20142;-69
2022/11/14 05:05:13;;;;;;;66.70;37.70;;;7.20;99.90;;;;;;5049412;28;20045;-68
2022/11/14 05:07:40;;;;;;;65.18;36.05;;;7.20;99.90;;;;;;5047443;28;20053;-68
2022/11/14 05:10:07;;;;;;;62.88;36.80;;;7.10;99.90;;;;;;5058054;28;20057;-68
2022/11/14 05:12:33;;;;;;;64.75;38.40;;;7.10;99.90;;;;;;5048672;28;20045;-68
2022/11/14 05:14:58;;;;;;;64.72;37.17;;;7.10;99.90;;;;;;5057179;28;20292;-68
2022/11/14 05:17:24;;;;;;;65.00;36.35;;;7.20;99.90;;;;;;5055059;28;20214;-68
2022/11/14 05:19:50;;;;;;;67.55;37.90;;;7.20;99.90;;;;;;5058988;28;20056;-68
2022/11/14 05:22:17;;;;;;;68.18;39.33;;;7.10;99.90;;;;;;5056096;28;20060;-69
2022/11/14 05:24:42;;;;;;;65.90;38.20;;;7.20;99.90;;;;;;5058699;28;20045;-69
2022/11/14 05:27:08;;;;;;;64.13;37.10;;;7.10;99.90;;;;;;5047530;28;20144;-68
2022/11/14 05:29:34;;;;;;;74.43;40.75;;;7.10;99.90;;;;;;5052491;28;20080;-69
2022/11/14 05:32:00;;;;;;;73.72;40.20;;;7.10;99.90;;;;;;5053805;28;20196;-69
2022/11/14 05:34:26;;;;;;;71.53;39.65;;;7.10;99.90;;;;;;5011548;28;20060;-69
2022/11/14 05:36:52;;;;;;;70.05;39.83;;;7.10;99.90;;;;;;5043851;28;20058;-69
2022/11/14 05:39:18;;;;;;;69.90;39.58;;;7.10;99.90;;;;;;5049109;28;20042;-69
2022/11/14 05:41:44;;;;;;;69.93;40.42;;;7.20;99.90;;;;;;5049274;28;20045;-70
2022/11/14 05:44:09;;;;;;;69.30;38.53;;;7.10;99.90;;;;;;5041369;28;20043;-69
2022/11/14 05:46:35;;;;;;;65.97;36.33;;;7.10;99.90;;;;;;5062805;28;20468;-68
2022/11/14 05:49:01;;;;;;;69.65;38.28;;;7.10;99.90;;;;;;5002400;28;20477;-71
2022/11/14 05:51:26;;;;;;;72.70;38.10;;;7.10;99.90;;;;;;5050708;28;20405;-71
2022/11/14 05:53:52;;;;;;;69.30;37.97;;;7.10;99.90;;;;;;5029834;28;20072;-71
2022/11/14 05:56:18;;;;;;;68.80;38.78;;;7.00;99.90;;;;;;5039227;28;20100;-70
2022/11/14 05:58:43;;;;;;;70.82;38.15;;;7.00;99.90;;;;;;5028407;28;20513;-72
2022/11/14 06:01:15;;;;;;;73.85;40.33;;;7.00;99.90;;;;;;5021778;28;20092;-70
2022/11/14 06:03:43;;;;;;;72.78;39.15;;;7.00;99.90;;;;;;5029462;28;20124;-71
2022/11/14 06:06:11;;;;;;;67.53;37.50;;;7.00;99.90;;;;;;5002029;28;20052;-70
2022/11/14 06:08:38;;;;;;;71.55;38.67;;;6.90;99.90;;;;;;5036537;28;20363;-70
2022/11/14 06:11:06;;;;;;;73.03;38.75;;;6.90;99.90;;;;;;5018823;28;20551;-70
2022/11/14 06:13:32;;;;;;;69.22;38.40;;;6.80;99.90;;;;;;5036738;28;20106;-69
2022/11/14 06:16:03;;;;;;;74.50;39.08;;;6.90;99.90;;;;;;5036982;28;20071;-70
2022/11/14 06:18:30;;;;;;;69.45;35.33;;;6.80;99.90;;;;;;5038300;28;20049;-69
2022/11/14 06:21:07;;;;;;;75.10;39.05;;;6.80;99.90;;;;;;5036207;28;20056;-69
2022/11/14 06:23:32;;;;;;;70.05;37.33;;;6.90;99.90;;;;;;5037168;28;20042;-68
2022/11/14 06:26:04;;;;;;;70.63;37.80;;;6.90;99.90;;;;;;5025573;28;20071;-68
2022/11/14 06:28:30;;;;;;;71.57;37.85;;;6.80;99.90;;;;;;5048773;28;20081;-68
2022/11/14 06:30:57;;;;;;;74.70;39.83;;;6.80;99.90;;;;;;5039175;28;20376;-68
2022/11/14 06:33:23;;;;;;;75.50;39.28;;;6.80;99.90;;;;;;5034290;28;20057;-69
2022/11/14 06:35:49;;;;;;;71.32;37.17;;;6.80;99.90;;;;;;5010722;28;20114;-69
2022/11/14 06:38:14;;;;;;;70.75;38.65;;;6.80;99.90;;;;;;5017159;28;20042;-68
2022/11/14 06:40:40;;;;;;;75.00;38.60;;;6.70;99.90;;;;;;5006468;28;20117;-68
2022/11/14 06:43:06;;;;;;;70.78;36.78;;;6.70;99.90;;;;;;5013838;28;20069;-68
2022/11/14 06:45:31;;;;;;;69.53;36.28;;;6.70;99.90;;;;;;5022838;28;20064;-68
2022/11/14 06:47:58;;;;;;;70.38;37.03;;;6.70;99.90;;;;;;5016541;28;20040;-69
2022/11/14 06:50:24;;;;;;;68.07;36.17;;;6.70;99.90;;;;;;5011028;28;20104;-69
2022/11/14 06:52:50;;;;;;;66.30;36.58;;;6.70;99.90;;;;;;5028858;28;20045;-68
2022/11/14 06:55:16;;;;;;;68.93;36.30;;;6.70;99.90;;;;;;5021383;28;20357;-68
2022/11/14 06:57:41;;;;;;;70.85;37.08;;;6.70;99.90;;;;;;5036890;28;20045;-69
2022/11/14 07:00:07;;;;;;;71.20;37.63;;;6.70;99.90;;;;;;5042847;28;20060;-72
2022/11/14 07:02:33;;;;;;;64.93;36.95;;;6.70;99.90;;;;;;5038994;28;20053;-71
2022/11/14 07:04:59;;;;;;;65.78;35.38;;;6.70;99.90;;;;;;5037290;28;20539;-67
2022/11/14 07:07:25;;;;;;;69.15;37.10;;;6.70;99.90;;;;;;5039041;28;20080;-67
2022/11/14 07:09:50;;;;;;;75.60;37.90;;;6.60;99.90;;;;;;5042488;28;20045;-67
2022/11/14 07:12:16;;;;;;;71.63;37.10;;;6.60;99.90;;;;;;5049694;28;20041;-68
2022/11/14 07:14:42;;;;;;;76.57;40.22;;;6.60;99.90;;;;;;5066215;28;20071;-68
2022/11/14 07:17:07;;;;;;;70.80;37.90;;;6.70;99.90;;;;;;5053657;28;20053;-67
2022/11/14 07:19:33;;;;;;;77.47;38.35;;;6.70;99.90;;;;;;5052030;28;20055;-68
2022/11/14 07:21:59;;;;;;;76.70;37.58;;;6.70;99.90;;;;;;5060220;28;20049;-68
2022/11/14 07:24:25;;;;;;;73.82;37.30;;;6.70;99.90;;;;;;5036732;28;20054;-68
2022/11/14 07:26:50;;;;;;;72.85;38.47;;;6.70;99.90;;;;;;5053658;28;20050;-68
2022/11/14 07:29:16;;;;;;;65.32;36.53;;;6.70;99.90;;;;;;5032489;28;20489;-68
2022/11/14 07:31:41;;;;;;;69.60;36.80;;;6.70;99.90;;;;;;5042882;28;20050;-67
2022/11/14 07:34:08;;;;;;;75.20;40.53;;;6.70;99.90;;;;;;5050927;28;20052;-69
2022/11/14 07:36:33;;;;;;;74.40;37.83;;;6.70;99.90;;;;;;5041248;28;20617;-68
2022/11/14 07:38:59;;;;;;;75.57;38.63;;;6.70;99.90;;;;;;5022498;28;20077;-67
2022/11/14 07:41:25;;;;;;;80.45;40.25;;;6.70;99.90;;;;;;5044719;28;20246;-67
2022/11/14 07:43:50;;;;;;;70.30;37.45;;;6.70;99.90;;;;;;5034560;28;20041;-67
2022/11/14 07:46:17;;;;;;;68.20;37.83;;;6.80;99.90;;;;;;5046471;28;20053;-67
2022/11/14 07:48:43;;;;;;;65.57;35.03;;;6.80;99.90;;;;;;5035992;28;20128;-67
2022/11/14 07:51:14;;;;;;;64.35;35.72;;;6.80;99.90;;;;;;5046433;28;20048;-67
2022/11/14 07:53:40;;;;;;;69.93;39.08;;;6.80;99.90;;;;;;5042830;28;20136;-67
2022/11/14 07:56:11;;;;;;;68.60;38.67;;;6.80;99.90;;;;;;5048261;28;20079;-67
2022/11/14 07:58:38;;;;;;;65.32;36.65;;;6.80;99.90;;;;;;5037387;28;20045;-67
2022/11/14 08:01:05;;;;;;;73.15;37.97;;;6.70;99.90;;;;;;5048048;28;20048;-67
2022/11/14 08:03:32;;;;;;;72.03;37.90;;;6.80;99.90;;;;;;5038313;28;20149;-67
2022/11/14 08:06:04;;;;;;;70.25;38.00;;;6.80;99.90;;;;;;5044291;28;20053;-67
2022/11/14 08:08:30;;;;;;;68.75;38.03;;;6.80;99.90;;;;;;5024537;28;20049;-70
2022/11/14 08:10:57;;;;;;;70.40;37.60;;;6.80;99.90;;;;;;5043865;28;20059;-68
2022/11/14 08:13:23;;;;;;;68.63;35.40;;;6.80;99.90;;;;;;5017360;28;20070;-68
2022/11/14 08:15:49;;;;;;;67.97;37.25;;;6.70;99.90;;;;;;5043109;28;20056;-68
2022/11/14 08:18:15;;;;;;;64.63;35.42;;;6.80;99.90;;;;;;5037816;28;20037;-68
2022/11/14 08:20:40;;;;;;;65.40;35.47;;;6.80;99.90;;;;;;5054198;28;20130;-68
2022/11/14 08:23:06;;;;;;;63.15;36.83;;;6.80;99.90;;;;;;5034519;28;20051;-68
2022/11/14 08:25:32;;;;;;;70.35;37.75;;;6.90;99.90;;;;;;5041619;28;20056;-68
2022/11/14 08:27:58;;;;;;;68.82;37.78;;;6.90;99.90;;;;;;5043825;28;20053;-69
2022/11/14 08:30:24;;;;;;;69.80;38.72;;;7.00;99.90;;;;;;5039497;28;20045;-69
2022/11/14 08:32:50;;;;;;;65.03;35.65;;;7.00;99.90;;;;;;5043825;28;20045;-68
2022/11/14 08:35:15;;;;;;;67.95;36.47;;;7.00;99.90;;;;;;5023413;28;20048;-68
2022/11/14 08:37:41;;;;;;;69.20;36.75;;;6.90;99.90;;;;;;5041738;28;20115;-69
2022/11/14 08:40:07;;;;;;;63.67;36.05;;;7.00;99.90;;;;;;5063210;28;20053;-68
2022/11/14 08:42:33;;;;;;;69.43;37.75;;;7.00;99.90;;;;;;5037049;28;20493;-68
2022/11/14 08:44:59;;;;;;;61.45;36.15;;;7.00;99.90;;;;;;5039357;28;20087;-67
2022/11/14 08:47:24;;;;;;;66.65;34.38;;;7.00;99.90;;;;;;5046313;28;20049;-67
2022/11/14 08:49:50;;;;;;;60.92;34.47;;;7.10;99.90;;;;;;5032642;28;20061;-68
2022/11/14 08:52:16;;;;;;;63.00;35.75;;;7.10;99.90;;;;;;5049806;28;20048;-68
2022/11/14 08:54:41;;;;;;;69.43;36.58;;;7.10;99.90;;;;;;5040192;28;20061;-68
2022/11/14 08:57:07;;;;;;;64.78;35.90;;;7.20;99.90;;;;;;5052258;28;20072;-68
2022/11/14 08:59:33;;;;;;;67.72;35.08;;;7.20;99.90;;;;;;5030070;28;20066;-68
2022/11/14 09:01:59;;;;;;;60.47;33.60;;;7.30;99.90;;;;;;5051192;28;20136;-68
2022/11/14 09:04:24;;;;;;;67.07;35.17;;;7.20;99.90;;;;;;5030612;28;20072;-69
2022/11/14 09:06:50;;;;;;;60.70;35.05;;;7.20;99.90;;;;;;5055042;28;20060;-68
2022/11/14 09:09:16;;;;;;;59.67;35.50;;;7.30;99.90;;;;;;5029304;28;20042;-67
2022/11/14 09:11:42;;;;;;;65.28;37.65;;;7.30;99.90;;;;;;5035966;28;20053;-67
2022/11/14 09:14:08;;;;;;;63.00;35.20;;;7.30;99.90;;;;;;5019741;28;20150;-68
2022/11/14 09:16:34;;;;;;;60.70;34.25;;;7.30;99.90;;;;;;5045489;28;20083;-68
2022/11/14 09:18:59;;;;;;;61.38;34.38;;;7.30;99.90;;;;;;5035697;28;20041;-68
2022/11/14 09:21:25;;;;;;;60.38;35.35;;;7.30;99.90;;;;;;5045558;28;20080;-68
2022/11/14 09:23:51;;;;;;;58.15;33.33;;;7.40;99.90;;;;;;5011977;28;20084;-68
2022/11/14 09:26:17;;;;;;;60.33;35.58;;;7.50;99.90;;;;;;5043758;28;20049;-68
2022/11/14 09:28:44;;;;;;;60.10;34.38;;;7.50;99.90;;;;;;5037809;28;20096;-67
2022/11/14 09:31:12;;;;;;;63.03;36.10;;;7.50;99.90;;;;;;5032041;28;20052;-68
2022/11/14 09:33:38;;;;;;;59.13;33.40;;;7.60;99.90;;;;;;5020059;28;20054;-68
2022/11/14 09:36:06;;;;;;;57.50;33.90;;;7.60;99.90;;;;;;5029378;28;20052;-69
2022/11/14 09:38:33;;;;;;;58.85;33.97;;;7.60;99.90;;;;;;5043543;28;20060;-68
2022/11/14 09:41:07;;;;;;;58.70;34.70;;;7.70;99.90;;;;;;5066469;28;20053;-68
2022/11/14 09:43:45;;;;;;;57.70;33.70;;;7.70;99.90;;;;;;5039758;28;20037;-68
2022/11/14 09:46:15;;;;;;;54.65;31.80;;;7.70;99.90;;;;;;5054969;28;20432;-68
2022/11/14 09:48:41;;;;;;;53.97;33.25;;;7.70;99.90;;;;;;5039321;28;20051;-68
2022/11/14 09:51:14;;;;;;;57.47;33.45;;;7.70;99.90;;;;;;5046244;28;20051;-68
2022/11/14 09:53:48;;;;;;;49.25;30.20;;;7.80;99.90;;;;;;5040392;28;20072;-68
2022/11/14 09:56:20;;;;;;;55.47;32.65;;;7.90;99.90;;;;;;5054926;28;20142;-68
2022/11/14 09:58:46;;;;;;;50.55;30.48;;;8.00;99.90;;;;;;5037180;28;20080;-68
2022/11/14 10:01:34;;;;;;;49.10;32.67;;;8.00;99.90;;;;;;5049443;28;20114;-68
2022/11/14 10:04:03;;;;;;;46.95;29.98;;;8.00;99.90;;;;;;5036869;28;20105;-68
2022/11/14 10:06:34;;;;;;;50.10;31.60;;;8.00;99.90;;;;;;5044299;28;20056;-68
2022/11/14 10:09:25;;;;;;;52.40;32.90;;;8.10;99.90;;;;;;5036196;28;20041;-68
2022/11/14 10:12:24;;;;;;;46.55;29.77;;;8.00;99.90;;;;;;5045284;28;20053;-68
2022/11/14 10:15:12;;;;;;;52.65;30.83;;;8.00;99.90;;;;;;5039584;28;20057;-68
2022/11/14 10:17:58;;;;;;;52.25;33.63;;;7.90;99.90;;;;;;5037424;28;20065;-67
2022/11/14 10:20:38;;;;;;;50.90;31.52;;;7.90;99.90;;;;;;5052084;28;20052;-68
2022/11/14 10:23:28;;;;;;;50.53;31.33;;;7.90;99.90;;;;;;5062705;28;20045;-68
2022/11/14 10:26:00;;;;;;;50.30;30.75;;;7.90;99.90;;;;;;5047933;28;20037;-67
2022/11/14 10:28:40;;;;;;;51.10;32.15;;;8.00;99.90;;;;;;5051500;28;20060;-67
2022/11/14 10:31:12;;;;;;;48.72;30.48;;;8.00;99.90;;;;;;5048596;28;20048;-67
2022/11/14 10:34:03;;;;;;;52.53;31.02;;;8.00;99.90;;;;;;5044129;28;20071;-67
2022/11/14 10:36:49;;;;;;;49.85;31.35;;;8.10;99.90;;;;;;5047795;28;20461;-67
2022/11/14 10:39:24;;;;;;;55.28;33.13;;;8.20;99.90;;;;;;5042792;28;20049;-67
2022/11/14 10:41:55;;;;;;;51.83;30.33;;;8.20;99.90;;;;;;5066291;28;20052;-68
2022/11/14 10:44:29;;;;;;;50.05;30.95;;;8.30;99.90;;;;;;5033820;28;20045;-68
2022/11/14 10:47:04;;;;;;;54.88;33.95;;;8.30;99.90;;;;;;5062578;28;20456;-67
2022/11/14 10:49:35;;;;;;;54.30;32.33;;;8.20;99.90;;;;;;5039408;28;20055;-67
2022/11/14 10:52:02;;;;;;;;;;;8.40;99.90;;;;;;5057874;28;20122;-67
2022/11/14 10:54:44;;;;;;;48.40;30.45;;;8.40;99.90;;;;;;5040965;28;19920;-67
2022/11/14 10:57:21;;;;;;;50.83;30.60;;;8.40;99.90;;;;;;5044450;28;20099;-67
2022/11/14 10:59:47;;;;;;;47.58;30.60;;;8.60;99.90;;;;;;5037759;28;20075;-66
2022/11/14 11:02:13;;;;;;;45.88;30.27;;;8.60;99.90;;;;;;5056036;28;20057;-66
2022/11/14 11:04:41;;;;;;;50.50;32.05;;;8.70;99.90;;;;;;5035630;28;20056;-66
2022/11/14 11:07:06;;;;;;;48.20;30.90;;;8.70;99.90;;;;;;5052173;28;20076;-66
2022/11/14 11:12:21;;;;;;;48.50;31.85;;;8.80;99.90;;;;;;5006063;28;20060;-66
2022/11/14 11:15:06;;;;;;;49.22;29.80;;;8.80;99.90;;;;;;5017175;28;20057;-66
2022/11/14 11:17:31;;;;;;;51.85;31.45;;;8.80;99.90;;;;;;5002538;28;20074;-66
2022/11/14 11:20:34;;;;;;;45.63;31.08;;;8.80;99.90;;;;;;5006315;28;20514;-66
2022/11/14 11:23:14;;;;;;;45.45;31.13;;;8.80;99.90;;;;;;5042819;28;20057;-67
2022/11/14 11:25:40;;;;;;;45.95;29.17;;;8.80;99.90;;;;;;5033078;28;20049;-67
2022/11/14 11:28:18;;;;;;;47.60;32.33;;;8.90;99.90;;;;;;5031241;28;20045;-67
2022/11/14 11:30:56;;;;;;;47.45;30.38;;;8.90;99.90;;;;;;5040022;28;20576;-66
2022/11/14 11:33:23;;;;;;;49.40;30.92;;;9.00;99.90;;;;;;4995583;28;20061;-66
2022/11/14 11:35:51;;;;;;;44.75;29.23;;;9.10;99.90;;;;;;4991152;28;20591;-66
2022/11/14 11:38:18;;;;;;;43.70;30.40;;;9.10;99.90;;;;;;5034669;28;21284;-66
2022/11/14 11:40:47;;;;;;;47.33;30.00;;;9.30;99.90;;;;;;5040248;28;20108;-66
2022/11/14 11:43:52;;;;;;;45.65;30.58;;;9.40;99.90;;;;;;5018717;28;20042;-66
2022/11/14 11:47:10;;;;;;;47.83;31.75;;;9.60;99.90;;;;;;4994239;28;20060;-66
2022/11/14 11:49:45;;;;;;;43.00;27.73;;;9.80;99.90;;;;;;4946726;28;20095;-66
2022/11/14 11:52:23;;;;;;;43.50;29.25;;;9.90;99.90;;;;;;4934085;28;20055;-66
2022/11/14 11:54:59;;;;;;;45.25;30.02;;;10.00;99.90;;;;;;4974826;28;20153;-66
2022/11/14 11:57:33;;;;;;;44.58;28.33;;;10.00;99.90;;;;;;4950285;28;20051;-66
2022/11/14 12:00:27;;;;;;;41.42;26.50;;;10.00;99.90;;;;;;4961856;28;20059;-66
2022/11/14 12:02:53;;;;;;;43.08;28.35;;;10.00;99.90;;;;;;4949087;28;20062;-67
2022/11/14 12:05:22;;;;;;;41.40;27.02;;;9.90;99.90;;;;;;4934586;28;20065;-67
2022/11/14 12:07:59;;;;;;;40.60;27.75;;;10.00;99.90;;;;;;4950173;28;20497;-66
2022/11/14 12:10:29;;;;;;;41.08;27.52;;;10.10;99.90;;;;;;4945861;28;20228;-66
2022/11/14 12:13:03;;;;;;;41.55;28.25;;;10.20;99.90;;;;;;4946825;28;20120;-66
2022/11/14 12:15:50;;;;;;;46.90;29.73;;;10.10;99.90;;;;;;4966319;28;20055;-66
2022/11/14 12:18:52;;;;;;;42.38;27.02;;;10.00;99.90;;;;;;4973443;28;20050;-67
2022/11/14 12:21:45;;;;;;;42.50;28.13;;;10.00;99.90;;;;;;4957716;28;20069;-66
2022/11/14 12:24:41;;;;;;;40.60;28.65;;;10.00;99.90;;;;;;4939694;28;20059;-66
2022/11/14 12:27:28;;;;;;;41.17;27.08;;;10.10;99.90;;;;;;5038111;28;20057;-66
2022/11/14 12:30:06;;;;;;;40.65;28.02;;;10.10;99.90;;;;;;5036197;28;20088;-66
2022/11/14 12:32:39;;;;;;;38.95;26.58;;;10.00;99.90;;;;;;5043170;28;20052;-66
2022/11/14 12:35:12;;;;;;;38.58;26.60;;;10.10;99.90;;;;;;5018085;28;20054;-66
2022/11/14 12:37:44;;;;;;;42.20;28.65;;;10.10;99.90;;;;;;5021688;28;20057;-66
2022/11/14 12:40:28;;;;;;;37.63;26.05;;;10.10;99.90;;;;;;5040697;28;20064;-66
2022/11/14 12:42:56;;;;;;;39.05;27.63;;;10.10;99.90;;;;;;5021278;28;20060;-66
2022/11/14 12:45:39;;;;;;;44.67;27.35;;;10.10;99.90;;;;;;5041979;28;20053;-66
2022/11/14 12:48:26;;;;;;;37.65;26.05;;;10.10;99.90;;;;;;5059896;28;20408;-67
2022/11/14 12:50:53;;;;;;;41.13;27.15;;;10.10;99.90;;;;;;5048103;28;20104;-66